.
WxDataArchive / Data Records for 2011-07-16
2011-07-15 July 2011 2011-07-17

Data Records for Saturday, 16 July 2011

Time	Temp	Chill	HIndex	Humid	Dewpt	 Wind 	HiWind	WindDir	Rain 	Barom 
-----	----	-----	------	-----	-----	------	------	-------	-----	----- 
00:00	71.6	71.6	71.6	59	56.5	0	1	90	0.00	29.977 
00:05	71.8	71.8	71.8	58	56.2	0	2	90	0.00	29.977 
00:10	72.0	72.0	72.0	57	55.9	0	2	90	0.00	29.977 
00:15	72.3	72.3	72.3	57	56.2	0	2	90	0.00	29.975 
00:20	72.3	72.3	72.3	56	55.7	0	2	90	0.00	29.975 
00:25	72.5	72.5	72.5	56	55.9	0	1	90	0.00	29.975 
00:30	72.3	72.3	72.3	56	55.7	0	2	90	0.00	29.974 
00:35	72.3	72.3	72.3	56	55.7	0	2	90	0.00	29.974 
00:40	72.3	72.3	72.3	57	56.2	0	1	90	0.00	29.974 
00:45	72.1	72.1	72.1	57	56.0	0	2	90	0.00	29.975 
00:50	72.1	72.1	72.1	57	56.0	1	3	90	0.00	29.975 
00:55	72.1	72.1	72.1	58	56.5	0	2	90	0.00	29.975 
01:00	72.0	72.0	72.0	58	56.4	0	2	90	0.00	29.976 
01:05	71.8	71.8	71.8	58	56.2	0	1	90	0.00	29.976 
01:10	71.6	71.6	71.6	59	56.5	0	0	---	0.00	29.976 
01:15	71.5	71.5	71.5	59	56.4	0	1	90	0.00	29.979 
01:20	71.3	71.3	71.3	60	56.7	0	0	---	0.00	29.979 
01:25	70.9	70.9	70.9	60	56.3	0	0	---	0.00	29.979 
01:30	70.6	70.6	70.6	61	56.5	0	0	---	0.00	29.982 
01:35	70.3	70.3	70.3	62	56.7	0	0	---	0.00	29.982 
01:40	70.1	70.1	70.1	63	56.9	0	0	---	0.00	29.982 
01:45	69.8	69.8	69.8	64	57.1	0	0	---	0.00	29.979 
01:50	69.6	69.6	69.6	65	57.3	0	0	---	0.00	29.979 
01:55	69.3	69.3	69.3	66	57.4	0	0	---	0.00	29.979 
02:00	69.1	69.1	69.1	66	57.3	0	1	90	0.00	29.976 
02:05	69.3	69.3	69.3	65	57.0	0	2	90	0.00	29.976 
02:10	69.3	69.3	69.3	65	57.0	0	2	90	0.00	29.976 
02:15	69.4	69.4	69.4	65	57.1	0	1	90	0.00	29.974 
02:20	69.4	69.4	69.4	65	57.1	0	0	---	0.00	29.974 
02:25	69.4	69.4	69.4	65	57.1	0	0	---	0.00	29.974 
02:30	69.3	69.3	69.3	66	57.4	0	0	---	0.00	29.976 
02:35	69.1	69.1	69.1	66	57.3	0	0	---	0.00	29.976 
02:40	68.9	68.9	68.9	67	57.5	0	0	---	0.00	29.976 
02:45	68.6	68.6	68.6	67	57.2	0	0	---	0.00	29.977 
02:50	68.4	68.4	68.4	68	57.4	0	0	---	0.00	29.977 
02:55	68.3	68.3	68.3	69	57.7	0	0	---	0.00	29.977 
03:00	68.1	68.1	68.1	70	57.9	0	0	---	0.00	29.983 
03:05	67.9	67.9	67.9	70	57.7	0	0	---	0.00	29.983 
03:10	67.8	67.8	67.8	70	57.6	0	0	---	0.00	29.983 
03:15	67.6	67.6	67.6	71	57.9	0	0	---	0.00	29.981 
03:20	67.6	67.6	67.6	71	57.9	0	0	---	0.00	29.981 
03:25	67.4	67.4	67.4	72	58.1	0	0	---	0.00	29.981 
03:30	67.3	67.3	67.3	73	58.3	0	0	---	0.00	29.981 
03:35	67.3	67.3	67.3	73	58.3	0	0	---	0.00	29.981 
03:40	67.1	67.1	67.1	73	58.1	0	0	---	0.00	29.981 
03:45	67.1	67.1	67.1	74	58.5	0	0	---	0.00	29.978 
03:50	66.9	66.9	66.9	74	58.3	0	0	---	0.00	29.978 
03:55	66.9	66.9	66.9	74	58.3	0	0	---	0.00	29.978 
04:00	66.9	66.9	66.9	75	58.7	0	0	---	0.00	29.983 
04:05	66.8	66.8	66.8	75	58.6	0	0	---	0.00	29.983 
04:10	66.8	66.8	66.8	76	59.0	0	0	---	0.00	29.983 
04:15	66.8	66.8	66.8	76	59.0	0	0	---	0.00	29.983 
04:20	66.6	66.6	66.6	76	58.8	0	0	---	0.00	29.983 
04:25	66.6	66.6	66.6	76	58.8	0	0	---	0.00	29.983 
04:30	66.6	66.6	66.6	77	59.2	0	0	---	0.00	29.982 
04:35	66.8	66.8	66.8	77	59.3	0	0	---	0.00	29.982 
04:40	66.9	66.9	66.9	76	59.1	0	1	90	0.00	29.982 
04:45	67.1	67.1	67.1	76	59.3	0	0	---	0.00	29.984 
04:50	67.1	67.1	67.1	76	59.3	0	0	---	0.00	29.984 
04:55	67.1	67.1	67.1	76	59.3	0	0	---	0.00	29.984 
05:00	66.9	66.9	66.9	76	59.1	0	0	---	0.00	29.990 
05:05	66.8	66.8	66.8	77	59.3	0	0	---	0.00	29.990 
05:10	66.8	66.8	66.8	77	59.3	0	0	---	0.00	29.990 
05:15	66.6	66.6	66.6	78	59.5	0	0	---	0.00	29.993 
05:20	66.4	66.4	66.4	78	59.3	0	0	---	0.00	29.993 
05:25	66.3	66.3	66.3	79	59.6	0	0	---	0.00	29.993 
05:30	66.1	66.1	66.1	80	59.7	0	0	---	0.00	29.998 
05:35	66.0	66.0	66.0	80	59.6	0	0	---	0.00	29.998 
05:40	66.0	66.0	66.0	81	60.0	0	0	---	0.00	29.998 
05:45	65.8	65.8	65.8	81	59.8	0	0	---	0.00	30.003 
05:50	65.6	65.6	65.6	81	59.6	0	0	---	0.00	30.003 
05:55	65.6	65.6	65.6	82	59.9	0	0	---	0.00	30.003 
06:00	65.6	65.6	65.6	82	59.9	0	0	---	0.00	30.005 
06:05	65.5	65.5	65.5	83	60.2	0	0	---	0.00	30.005 
06:10	65.5	65.5	65.5	83	60.2	0	0	---	0.00	30.005 
06:15	65.5	65.5	65.5	84	60.5	0	0	---	0.00	30.009 
06:20	65.3	65.3	65.3	84	60.3	0	0	---	0.00	30.009 
06:25	65.3	65.3	65.3	84	60.3	0	0	---	0.00	30.009 
06:30	65.3	65.3	65.3	84	60.3	0	0	---	0.00	30.009 
06:35	65.3	65.3	65.3	85	60.7	0	0	---	0.00	30.009 
06:40	65.5	65.5	65.5	85	60.9	0	1	90	0.00	30.009 
06:45	65.6	65.6	65.6	85	61.0	0	1	90	0.00	30.009 
06:50	65.8	65.8	65.8	84	60.8	0	1	90	0.00	30.009 
06:55	66.0	66.0	66.0	84	61.0	0	1	90	0.00	30.009 
07:00	66.1	66.1	66.1	84	61.1	0	3	90	0.00	30.011 
07:05	66.3	66.3	66.3	84	61.3	0	2	90	0.00	30.011 
07:10	66.4	66.4	66.4	83	61.1	0	2	90	0.00	30.011 
07:15	66.6	66.6	66.6	83	61.3	0	2	90	0.00	30.022 
07:20	66.8	66.8	66.8	83	61.5	0	1	90	0.00	30.022 
07:25	66.9	66.9	66.9	83	61.6	0	3	90	0.00	30.022 
07:30	67.3	67.3	67.3	81	61.3	1	2	90	0.00	30.024 
07:35	67.6	67.6	67.6	81	61.6	0	1	90	0.00	30.024 
07:40	68.1	68.1	68.1	81	62.0	0	1	90	0.00	30.024 
07:45	68.8	68.8	68.8	80	62.4	0	0	---	0.00	30.021 
07:50	69.4	69.4	69.4	79	62.6	0	0	---	0.00	30.021 
07:55	69.9	69.9	69.9	78	62.7	0	0	---	0.00	30.021 
08:00	70.4	70.4	70.4	78	63.2	0	3	90	0.00	30.022 
08:05	70.9	70.9	70.9	77	63.3	0	2	90	0.00	30.022 
08:10	71.3	71.3	71.3	77	63.7	1	3	90	0.00	30.022 
08:15	71.6	71.6	71.6	77	64.0	0	1	90	0.00	30.018 
08:20	72.3	72.3	72.3	76	64.3	0	1	90	0.00	30.018 
08:25	72.8	72.8	72.8	76	64.8	0	2	90	0.00	30.018 
08:30	73.2	73.2	73.2	76	65.2	1	3	90	0.00	30.022 
08:35	73.3	73.3	73.3	77	65.6	0	2	90	0.00	30.022 
08:40	73.7	73.7	73.7	77	66.0	0	2	90	0.00	30.022 
08:45	74.2	74.2	74.2	76	66.1	0	2	90	0.00	30.029 
08:50	74.7	74.7	74.7	76	66.6	0	2	90	0.00	30.029 
08:55	75.1	75.1	76.3	75	66.6	0	3	90	0.00	30.029 
09:00	75.6	75.6	76.8	76	67.5	1	3	90	0.00	30.035 
09:05	76.1	76.1	77.5	75	67.6	0	1	90	0.00	30.035 
09:10	76.7	76.7	78.3	74	67.8	1	2	90	0.00	30.035 
09:15	77.0	77.0	78.7	74	68.1	1	4	90	0.00	30.028 
09:20	76.7	76.7	78.3	75	68.2	1	5	90	0.00	30.028 
09:25	76.5	76.5	78.0	76	68.4	2	5	68	0.00	30.028 
09:30	76.7	76.7	78.2	77	68.9	1	4	68	0.00	30.028 
09:35	77.4	77.4	79.3	75	68.8	1	3	90	0.00	30.028 
09:40	77.9	77.9	80.0	74	68.9	1	4	112	0.00	30.028 
09:45	78.6	78.6	81.0	73	69.2	1	3	112	0.00	30.022 
09:50	79.2	79.2	82.0	73	69.8	0	2	112	0.00	30.022 
09:55	79.4	79.4	82.3	73	70.0	1	4	90	0.00	30.022 
10:00	79.8	79.8	82.9	72	69.9	1	3	90	0.00	30.021 
10:05	79.9	79.9	83.0	72	70.0	1	5	90	0.00	30.021 
10:10	80.1	80.1	83.5	73	70.6	1	3	90	0.00	30.021 
10:15	80.3	80.3	83.7	72	70.4	2	5	90	0.00	30.020 
10:20	80.3	80.3	83.9	73	70.8	0	3	90	0.00	30.020 
10:25	80.9	80.9	84.5	70	70.2	1	3	90	0.00	30.020 
10:30	80.9	80.9	84.8	72	71.0	2	5	90	0.00	30.019 
10:35	81.1	81.1	85.0	71	70.8	0	2	90	0.00	30.019 
10:40	81.2	81.2	85.2	71	70.9	1	4	135	0.00	30.019 
10:45	81.6	81.6	85.7	70	70.8	0	2	135	0.00	30.021 
10:50	81.8	81.8	85.9	69	70.6	1	5	90	0.00	30.021 
10:55	81.6	81.6	86.1	72	71.7	2	5	90	0.00	30.021 
11:00	81.6	81.6	86.1	72	71.7	1	4	90	0.00	30.020 
11:05	81.8	81.8	85.9	69	70.6	1	4	112	0.00	30.020 
11:10	82.4	82.4	87.0	69	71.2	1	3	112	0.00	30.020 
11:15	82.4	82.4	87.0	69	71.2	2	5	68	0.00	30.033 
11:20	82.0	82.0	86.4	70	71.2	1	3	68	0.00	30.033 
11:25	81.6	81.6	85.7	70	70.8	1	3	68	0.00	30.033 
11:30	81.4	81.4	85.5	71	71.1	1	5	68	0.00	30.036 
11:35	81.6	81.6	85.7	70	70.8	0	3	68	0.00	30.036 
11:40	81.8	81.8	85.7	68	70.2	1	3	68	0.00	30.036 
11:45	82.0	82.0	86.0	68	70.4	1	4	112	0.00	30.036 
11:50	81.8	81.8	86.3	71	71.5	0	1	112	0.00	30.036 
11:55	82.0	82.0	86.0	68	70.4	1	5	112	0.00	30.036 
12:00	82.6	82.6	86.9	67	70.5	1	3	112	0.00	30.039 
12:05	83.0	83.0	86.9	64	69.5	2	4	90	0.00	30.039 
12:10	83.0	83.0	87.1	65	70.0	1	3	90	0.00	30.039 
12:15	83.0	83.0	87.1	65	70.0	1	4	90	0.00	30.043 
12:20	83.4	83.4	87.3	63	69.5	2	6	90	0.00	30.043 
12:25	84.0	84.0	88.6	64	70.5	1	4	112	0.00	30.043 
12:30	84.5	84.5	89.0	62	70.0	1	3	135	0.00	30.046 
12:35	84.5	84.5	88.4	60	69.1	1	3	135	0.00	30.046 
12:40	84.9	84.9	88.8	59	68.9	1	3	135	0.00	30.046 
12:45	85.1	85.1	88.5	57	68.1	3	5	90	0.00	30.047 
12:50	85.3	85.3	88.8	57	68.3	2	6	112	0.00	30.047 
12:55	85.7	85.7	89.2	56	68.2	0	3	112	0.00	30.047 
13:00	86.3	86.3	90.6	57	69.2	1	3	112	0.00	30.041 
13:05	86.5	86.5	89.9	54	67.8	1	6	90	0.00	30.041 
13:10	86.3	86.3	90.2	56	68.7	0	3	45	0.00	30.041 
13:15	86.3	86.3	90.2	56	68.7	1	3	225	0.00	30.038 
13:20	86.3	86.3	89.3	53	67.1	1	4	112	0.00	30.038 
13:25	86.5	86.5	90.3	55	68.4	1	4	90	0.00	30.038 
13:30	87.0	87.0	90.1	52	67.2	1	3	90	0.00	30.035 
13:35	87.8	87.8	92.2	54	69.0	1	4	90	0.00	30.035 
13:40	88.0	88.0	91.8	52	68.1	1	4	112	0.00	30.035 
13:45	88.0	88.0	91.4	51	67.6	1	3	270	0.00	30.028 
13:50	88.2	88.2	90.7	48	66.0	2	5	112	0.00	30.028 
13:55	88.0	88.0	91.4	51	67.6	1	4	90	0.00	30.028 
14:00	88.0	88.0	90.7	49	66.4	1	4	90	0.00	30.022 
14:05	87.8	87.8	90.7	50	66.8	2	6	90	0.00	30.022 
14:10	87.8	87.8	90.0	48	65.6	1	3	112	0.00	30.022 
14:15	88.0	88.0	91.0	50	67.0	2	5	292	0.00	30.021 
14:20	88.0	88.0	90.3	48	65.8	1	5	68	0.00	30.021 
14:25	87.8	87.8	90.7	50	66.8	2	4	112	0.00	30.021 
14:30	87.4	87.4	90.1	50	66.4	2	6	90	0.00	30.022 
14:35	87.0	87.0	88.8	48	64.9	1	5	68	0.00	30.022 
14:40	87.2	87.2	88.8	47	64.5	1	3	90	0.00	30.022 
14:45	87.2	87.2	89.7	50	66.3	1	3	90	0.00	30.024 
14:50	87.4	87.4	90.1	50	66.4	1	4	338	0.00	30.024 
14:55	88.0	88.0	90.3	48	65.8	1	3	135	0.00	30.024 
15:00	88.6	88.6	90.6	46	65.1	1	3	135	0.00	30.020 
15:05	88.6	88.6	91.0	47	65.7	2	5	68	0.00	30.020 
15:10	88.0	88.0	89.7	46	64.6	2	5	90	0.00	30.020 
15:15	88.2	88.2	89.3	44	63.5	1	3	90	0.00	30.023 
15:20	88.6	88.6	89.9	44	63.9	1	3	135	0.00	30.023 
15:25	88.4	88.4	88.7	41	61.7	2	4	68	0.00	30.023 
15:30	88.6	88.6	89.6	43	63.2	0	2	68	0.00	30.023 
15:35	89.0	89.0	89.0	39	60.8	1	3	90	0.00	30.023 
15:40	89.5	89.5	89.3	38	60.5	1	4	112	0.00	30.023 
15:45	89.3	89.3	89.4	39	61.0	1	4	135	0.00	30.022 
15:50	89.3	89.3	90.0	41	62.5	0	2	90	0.00	30.022 
15:55	89.5	89.5	89.6	39	61.2	1	2	90	0.00	30.022 
16:00	89.3	89.3	88.8	37	59.6	1	4	90	0.00	30.023 
16:05	89.0	89.0	88.1	36	58.5	1	4	90	0.00	30.023 
16:10	89.0	89.0	88.7	38	60.1	1	4	90	0.00	30.023 
16:15	89.7	89.7	89.6	38	60.7	0	1	90	0.00	30.021 
16:20	89.9	89.9	89.9	38	60.8	1	3	90	0.00	30.021 
16:25	89.7	89.7	89.6	38	60.7	2	4	112	0.00	30.021 
16:30	89.7	89.7	89.6	38	60.7	1	3	112	0.00	30.019 
16:35	89.7	89.7	89.3	37	59.9	1	4	112	0.00	30.019 
16:40	89.9	89.9	89.3	36	59.3	1	4	68	0.00	30.019 
16:45	89.9	89.9	89.6	37	60.1	0	2	68	0.00	30.020 
16:50	89.9	89.9	89.9	38	60.8	0	1	68	0.00	30.020 
16:55	89.7	89.7	88.8	35	58.4	1	2	68	0.00	30.020 
17:00	89.5	89.5	88.3	34	57.4	1	4	68	0.00	30.014 
17:05	89.5	89.5	88.5	35	58.2	0	2	22	0.00	30.014 
17:10	89.3	89.3	89.4	39	61.0	2	5	45	0.00	30.014 
17:15	89.5	89.5	90.0	40	61.9	0	2	112	0.00	30.014 
17:20	89.5	89.5	88.8	36	59.0	2	4	90	0.00	30.014 
17:25	89.3	89.3	88.5	36	58.8	1	3	112	0.00	30.014 
17:30	89.5	89.5	89.3	38	60.5	0	2	112	0.00	30.016 
17:35	89.7	89.7	88.5	34	57.6	1	3	112	0.00	30.016 
17:40	89.7	89.7	88.3	33	56.7	1	3	135	0.00	30.016 
17:45	89.5	89.5	88.5	35	58.2	0	2	90	0.00	30.014 
17:50	89.5	89.5	88.8	36	59.0	0	2	90	0.00	30.014 
17:55	89.3	89.3	88.5	36	58.8	1	3	90	0.00	30.014 
18:00	88.8	88.8	88.4	38	59.9	1	3	90	0.00	30.010 
18:05	88.8	88.8	88.7	39	60.6	1	4	90	0.00	30.010 
18:10	88.8	88.8	88.1	37	59.1	1	4	135	0.00	30.010 
18:15	88.8	88.8	87.9	36	58.4	0	2	135	0.00	30.015 
18:20	88.6	88.6	88.2	38	59.7	1	4	90	0.00	30.015 
18:25	88.6	88.6	87.9	37	59.0	0	2	90	0.00	30.015 
18:30	88.6	88.6	87.9	37	59.0	1	3	112	0.00	30.010 
18:35	88.6	88.6	87.6	36	58.2	0	1	112	0.00	30.010 
18:40	88.6	88.6	87.4	35	57.4	0	1	112	0.00	30.010 
18:45	88.4	88.4	87.6	37	58.8	0	1	112	0.00	30.010 
18:50	88.4	88.4	87.6	37	58.8	1	2	112	0.00	30.010 
18:55	88.2	88.2	87.2	36	57.8	1	2	112	0.00	30.010 
19:00	88.0	88.0	86.9	36	57.7	0	3	112	0.00	30.009 
19:05	87.8	87.8	87.4	39	59.7	0	1	112	0.00	30.009 
19:10	87.6	87.6	87.1	39	59.5	0	1	112	0.00	30.009 
19:15	87.6	87.6	87.1	39	59.5	0	2	112	0.00	30.006 
19:20	87.4	87.4	86.9	39	59.4	0	0	---	0.00	30.006 
19:25	87.2	87.2	86.9	40	59.9	0	0	---	0.00	30.006 
19:30	87.0	87.0	86.6	40	59.7	0	1	112	0.00	30.008 
19:35	87.0	87.0	87.1	42	61.1	0	2	112	0.00	30.008 
19:40	86.7	86.7	86.7	42	60.8	0	1	112	0.00	30.008 
19:45	86.7	86.7	86.7	42	60.8	0	3	112	0.00	30.014 
19:50	86.5	86.5	87.2	45	62.6	0	1	112	0.00	30.014 
19:55	86.3	86.3	86.5	43	61.1	0	0	---	0.00	30.014 
20:00	86.3	86.3	86.7	44	61.8	0	0	---	0.00	30.014 
20:05	86.1	86.1	86.5	44	61.6	0	0	---	0.00	30.014 
20:10	86.1	86.1	87.2	47	63.5	0	0	---	0.00	30.014 
20:15	86.1	86.1	87.2	47	63.5	0	1	112	0.00	30.005 
20:20	85.9	85.9	87.2	48	63.9	0	0	---	0.00	30.005 
20:25	85.7	85.7	86.9	48	63.7	0	0	---	0.00	30.005 
20:30	85.5	85.5	86.9	49	64.1	0	0	---	0.00	30.008 
20:35	85.3	85.3	86.6	49	63.9	0	0	---	0.00	30.008 
20:40	85.1	85.1	86.6	50	64.3	0	0	---	0.00	30.008 
20:45	84.7	84.7	86.5	52	65.1	0	0	---	0.00	30.006 
20:50	84.5	84.5	86.3	52	64.9	0	0	---	0.00	30.006 
20:55	84.1	84.1	85.7	52	64.5	0	0	---	0.00	30.006 
21:00	83.8	83.8	85.7	54	65.3	0	0	---	0.00	30.010 
21:05	83.4	83.4	85.2	54	65.0	0	0	---	0.00	30.010 
21:10	83.0	83.0	84.9	55	65.1	0	0	---	0.00	30.010 
21:15	82.4	82.4	84.1	55	64.6	0	0	---	0.00	30.012 
21:20	82.0	82.0	83.7	56	64.7	0	0	---	0.00	30.012 
21:25	81.6	81.6	83.4	57	64.9	0	0	---	0.00	30.012 
21:30	81.2	81.2	83.0	58	65.0	0	0	---	0.00	30.017 
21:35	81.1	81.1	82.9	58	64.9	0	0	---	0.00	30.017 
21:40	80.7	80.7	82.5	59	65.0	0	0	---	0.00	30.017 
21:45	80.3	80.3	82.2	60	65.1	0	0	---	0.00	30.018 
21:50	80.1	80.1	82.0	61	65.4	0	0	---	0.00	30.018 
21:55	79.8	79.8	81.8	62	65.6	0	0	---	0.00	30.018 
22:00	79.6	79.6	81.5	62	65.4	0	0	---	0.00	30.025 
22:05	79.2	79.2	81.1	63	65.5	0	0	---	0.00	30.025 
22:10	79.0	79.0	81.0	64	65.8	0	0	---	0.00	30.025 
22:15	78.8	78.8	80.7	64	65.6	0	0	---	0.00	30.032 
22:20	78.5	78.5	80.4	65	65.7	0	0	---	0.00	30.032 
22:25	78.3	78.3	80.2	65	65.5	0	0	---	0.00	30.032 
22:30	78.1	78.1	80.0	66	65.8	0	0	---	0.00	30.032 
22:35	77.9	77.9	79.8	67	66.0	0	0	---	0.00	30.032 
22:40	77.7	77.7	79.6	67	65.8	0	0	---	0.00	30.032 
22:45	77.6	77.6	79.5	68	66.2	0	0	---	0.00	30.033 
22:50	77.4	77.4	79.2	68	66.0	0	0	---	0.00	30.033 
22:55	77.2	77.2	79.0	69	66.2	0	0	---	0.00	30.033 
23:00	76.8	76.8	78.5	70	66.3	0	0	---	0.00	30.037 
23:05	76.7	76.7	78.4	70	66.2	0	0	---	0.00	30.037 
23:10	76.7	76.7	78.4	72	67.0	0	0	---	0.00	30.037 
23:15	76.5	76.5	78.1	72	66.8	0	0	---	0.00	30.035 
23:20	76.5	76.5	78.1	72	66.8	0	0	---	0.00	30.035 
23:25	76.3	76.3	77.9	71	66.2	0	0	---	0.00	30.035 
23:30	76.1	76.1	77.7	72	66.4	0	0	---	0.00	30.038 
23:35	76.1	76.1	77.7	72	66.4	0	0	---	0.00	30.038 
23:40	76.0	76.0	77.5	73	66.7	0	0	---	0.00	30.038 
23:45	75.8	75.8	77.3	73	66.5	0	0	---	0.00	30.039 
23:50	75.8	75.8	77.3	73	66.5	0	0	---	0.00	30.039 
23:55	75.6	75.6	77.0	74	66.7	0	0	---	0.00	30.039 

CoCoRaHS
IN-AL-39
A2 Web Hosting
Creative Commons License
GoDaddy
search engine by freefind advanced

loaded 2018-11-15 17:57:04 • last modified 2010-11-18 10:43:29
Privacy PolicyDisclaimer
• wx.awcolley.com is powered by PmWiki v.2002016 •
• all content (unless otherwise noted) © 2018 A W Colley